createdAt,value
2023-01-30T00:01:25.995Z,100137.41
2023-01-30T00:03:53.098Z,100143.88
2023-01-30T00:06:20.366Z,100126.97
2023-01-30T00:08:47.425Z,100130.59
2023-01-30T00:11:15.697Z,100138.75
2023-01-30T00:13:42.940Z,100133.47
2023-01-30T00:16:10.057Z,100138.47
2023-01-30T00:18:37.565Z,100137.31
2023-01-30T00:21:06.534Z,100134.16
2023-01-30T00:23:34.667Z,100135.59
2023-01-30T00:26:01.589Z,100135.59
2023-01-30T00:28:28.392Z,100132.91
2023-01-30T00:30:56.277Z,100140.47
2023-01-30T00:33:25.934Z,100132.16
2023-01-30T00:35:54.208Z,100129.84
2023-01-30T00:38:21.436Z,100127.91
2023-01-30T00:40:48.762Z,100124.97
2023-01-30T00:43:36.133Z,100128.88
2023-01-30T00:46:24.364Z,100126.19
2023-01-30T00:48:51.161Z,100125.97
2023-01-30T00:51:17.933Z,100121.44
2023-01-30T00:53:44.652Z,100113.72
2023-01-30T00:56:11.407Z,100110.94
2023-01-30T00:58:38.115Z,100108.59
2023-01-30T01:01:04.884Z,100110.13
2023-01-30T01:03:31.763Z,100109.38
2023-01-30T01:05:58.579Z,100105.59
2023-01-30T01:08:25.329Z,100117.19
2023-01-30T01:10:52.006Z,100099.41
2023-01-30T01:13:18.741Z,100101.97
2023-01-30T01:15:45.529Z,100098.59
2023-01-30T01:18:12.249Z,100101.38
2023-01-30T01:20:38.997Z,100100.81
2023-01-30T01:23:05.689Z,100095.47
2023-01-30T01:25:32.527Z,100087.97
2023-01-30T01:27:59.321Z,100095.69
2023-01-30T01:30:26.058Z,100078.16
2023-01-30T01:32:52.848Z,100082.16
2023-01-30T01:35:20.197Z,100071.88
2023-01-30T01:37:47.206Z,100074.44
2023-01-30T01:40:42.664Z,100069.53
2023-01-30T01:43:16.833Z,100063.84
2023-01-30T01:45:43.968Z,100059.34
2023-01-30T01:48:16.250Z,100055.78
2023-01-30T01:51:14.341Z,100036.88
2023-01-30T01:53:45.712Z,100038.09
2023-01-30T01:56:14.988Z,100034.53
2023-01-30T01:58:47.995Z,100028.03
2023-01-30T02:01:15.119Z,100026.69
2023-01-30T02:03:45.901Z,100012.84
2023-01-30T02:06:15.233Z,100007.97
2023-01-30T02:08:48.647Z,100009.31
2023-01-30T02:11:18.508Z,100009.75
2023-01-30T02:13:46.371Z,100006.03
2023-01-30T02:16:13.388Z,100005.44
2023-01-30T02:18:41.723Z,100004.47
2023-01-30T02:21:26.811Z,99999.13
2023-01-30T02:24:16.159Z,100002.69
2023-01-30T02:27:08.216Z,99997.63
2023-01-30T02:30:02.338Z,99993.34
2023-01-30T02:32:43.977Z,99990.94
2023-01-30T02:35:28.531Z,99976.47
2023-01-30T02:38:10.022Z,99980.53
2023-01-30T02:40:50.217Z,99973.03
2023-01-30T02:43:43.574Z,99967.06
2023-01-30T02:46:21.067Z,99966.63
2023-01-30T02:49:33.875Z,99958.69
2023-01-30T02:52:01.925Z,99955.13
2023-01-30T02:54:28.913Z,99950.59
2023-01-30T02:56:58.622Z,99947.69
2023-01-30T02:59:28.395Z,99946.75
2023-01-30T03:02:12.799Z,99945.16
2023-01-30T03:05:11.950Z,99939.19
2023-01-30T03:07:55.452Z,99936.75
2023-01-30T03:10:30.207Z,99931.84
2023-01-30T03:13:07.014Z,99929.84
2023-01-30T03:15:34.506Z,99927.50
2023-01-30T03:18:01.765Z,99921.34
2023-01-30T03:20:28.498Z,99928.25
2023-01-30T03:22:55.443Z,99921.78
2023-01-30T03:25:24.126Z,99925.22
2023-01-30T03:27:51.677Z,99925.22
2023-01-30T03:30:18.770Z,99925.22
2023-01-30T03:32:45.584Z,99916.41
2023-01-30T03:35:12.756Z,99922.38
2023-01-30T03:37:39.463Z,99921.25
2023-01-30T03:40:06.928Z,99921.13
2023-01-30T03:42:33.668Z,99918.44
2023-01-30T03:45:00.365Z,99924.41
2023-01-30T03:47:27.259Z,99919.28
2023-01-30T03:49:54.175Z,99916.69
2023-01-30T03:52:20.881Z,99906.44
2023-01-30T03:54:47.636Z,99903.25
2023-01-30T03:57:14.403Z,99902.16
2023-01-30T03:59:41.188Z,99896.63
2023-01-30T04:02:08.635Z,99898.31
2023-01-30T04:04:35.891Z,99904.78
2023-01-30T04:07:02.753Z,99898.22
2023-01-30T04:09:29.527Z,99897.44
2023-01-30T04:11:56.265Z,99895.44
2023-01-30T04:14:22.942Z,99890.53
2023-01-30T04:16:49.682Z,99891.31
2023-01-30T04:19:16.541Z,99893.31
2023-01-30T04:21:43.316Z,99885.63
2023-01-30T04:24:10.121Z,99888.75
2023-01-30T04:26:37.023Z,99883.59
2023-01-30T04:29:03.836Z,99876.00
2023-01-30T04:31:30.690Z,99884.84
2023-01-30T04:33:57.600Z,99872.22
2023-01-30T04:36:24.354Z,99856.81
2023-01-30T04:38:51.141Z,99851.69
2023-01-30T04:41:17.829Z,99856.81
2023-01-30T04:43:44.570Z,99862.94
2023-01-30T04:46:11.354Z,99850.56
2023-01-30T04:48:39.417Z,99856.94
2023-01-30T04:51:06.115Z,99856.13
2023-01-30T04:53:32.859Z,99852.44
2023-01-30T04:55:59.596Z,99854.31
2023-01-30T04:58:26.361Z,99850.19
2023-01-30T05:00:53.266Z,99857.69
2023-01-30T05:03:20.028Z,99850.00
2023-01-30T05:05:47.729Z,99842.38
2023-01-30T05:08:15.617Z,99844.16
2023-01-30T05:10:42.541Z,99840.41
2023-01-30T05:13:09.289Z,99840.97
2023-01-30T05:15:35.990Z,99834.59
2023-01-30T05:18:02.710Z,99835.97
2023-01-30T05:20:29.496Z,99832.97
2023-01-30T05:22:56.174Z,99832.09
2023-01-30T05:25:22.951Z,99840.91
2023-01-30T05:27:49.840Z,99847.63
2023-01-30T05:30:16.887Z,99844.75
2023-01-30T05:32:43.672Z,99834.19
2023-01-30T05:35:10.539Z,99837.88
2023-01-30T05:37:37.939Z,99830.53
2023-01-30T05:40:05.941Z,99822.72
2023-01-30T05:42:32.815Z,99812.69
2023-01-30T05:44:59.520Z,99819.63
2023-01-30T05:47:26.261Z,99819.84
2023-01-30T05:49:53.004Z,99827.22
2023-01-30T05:52:19.769Z,99822.22
2023-01-30T05:54:46.572Z,99821.78
2023-01-30T05:57:13.296Z,99825.59
2023-01-30T05:59:40.073Z,99821.44
2023-01-30T06:02:06.812Z,99817.09
2023-01-30T06:04:33.704Z,99822.91
2023-01-30T06:07:00.482Z,99816.00
2023-01-30T06:09:27.221Z,99820.25
2023-01-30T06:11:55.617Z,99802.81
2023-01-30T06:14:22.331Z,99809.06
2023-01-30T06:16:49.206Z,99811.06
2023-01-30T06:19:16.056Z,99815.88
2023-01-30T06:21:42.771Z,99823.03
2023-01-30T06:24:09.457Z,99817.22
2023-01-30T06:26:36.292Z,99820.34
2023-01-30T06:29:03.110Z,99821.34
2023-01-30T06:31:29.863Z,99812.72
2023-01-30T06:33:56.752Z,99808.41
2023-01-30T06:36:23.520Z,99807.69
2023-01-30T06:38:50.315Z,99800.00
2023-01-30T06:41:17.065Z,99810.00
2023-01-30T06:43:43.947Z,99809.47
2023-01-30T06:46:10.720Z,99814.03
2023-01-30T06:48:37.514Z,99801.38
2023-01-30T06:51:04.439Z,99802.63
2023-01-30T06:53:31.256Z,99808.78
2023-01-30T06:56:01.792Z,99810.41
2023-01-30T06:58:28.733Z,99798.63
2023-01-30T07:00:55.624Z,99795.03
2023-01-30T07:03:22.527Z,99797.41
2023-01-30T07:05:49.348Z,99815.13
2023-01-30T07:08:16.696Z,99810.66
2023-01-30T07:10:44.309Z,99809.50
2023-01-30T07:13:11.471Z,99813.41
2023-01-30T07:15:38.414Z,99807.25
2023-01-30T07:18:05.219Z,99809.34
2023-01-30T07:20:32.183Z,99799.06
2023-01-30T07:23:00.724Z,99798.94
2023-01-30T07:25:28.656Z,99797.94
2023-01-30T07:28:00.145Z,99800.84
2023-01-30T07:30:30.620Z,99802.19
2023-01-30T07:32:58.825Z,99797.75
2023-01-30T07:35:27.271Z,99804.00
2023-01-30T07:37:54.335Z,99798.66
2023-01-30T07:40:21.858Z,99804.38
2023-01-30T07:43:03.227Z,99796.06
2023-01-30T07:45:50.605Z,99784.00
2023-01-30T07:48:19.095Z,99784.81
2023-01-30T07:50:49.193Z,99783.75
2023-01-30T07:53:19.980Z,99781.94
2023-01-30T07:55:48.357Z,99782.69
2023-01-30T07:58:16.322Z,99783.25
2023-01-30T08:00:43.542Z,99786.38
2023-01-30T08:03:17.452Z,99781.72
2023-01-30T08:05:51.026Z,99778.16
2023-01-30T08:08:18.012Z,99766.53
2023-01-30T08:10:44.926Z,99747.88
2023-01-30T08:13:11.736Z,99719.22
2023-01-30T08:15:38.472Z,99719.53
2023-01-30T08:18:07.353Z,99714.69
2023-01-30T08:20:34.249Z,99709.03
2023-01-30T08:23:02.318Z,99718.91
2023-01-30T08:25:29.841Z,99705.47
2023-01-30T08:27:59.057Z,99717.91
2023-01-30T08:30:25.924Z,99710.69
2023-01-30T08:32:52.722Z,99709.66
2023-01-30T08:35:19.788Z,99705.78
2023-01-30T08:37:46.485Z,99701.63
2023-01-30T08:40:13.886Z,99701.34
2023-01-30T08:42:45.308Z,99710.16
2023-01-30T08:45:12.356Z,99710.13
2023-01-30T08:47:39.302Z,99704.88
2023-01-30T08:50:06.356Z,99708.69
2023-01-30T08:52:33.774Z,99709.97
2023-01-30T08:55:00.524Z,99721.09
2023-01-30T08:57:27.336Z,99712.75
2023-01-30T08:59:54.131Z,99698.44
2023-01-30T09:02:21.617Z,99698.91
2023-01-30T09:04:48.356Z,99703.41
2023-01-30T09:07:15.183Z,99700.09
2023-01-30T09:09:42.000Z,99695.97
2023-01-30T09:12:08.781Z,99692.91
2023-01-30T09:14:35.535Z,99689.28
2023-01-30T09:17:03.663Z,99688.97
2023-01-30T09:19:30.524Z,99684.25
2023-01-30T09:21:57.274Z,99679.34
2023-01-30T09:24:26.585Z,99675.81
2023-01-30T09:26:54.304Z,99681.53
2023-01-30T09:29:21.158Z,99674.81
2023-01-30T09:31:47.920Z,99674.31
2023-01-30T09:34:14.916Z,99661.84
2023-01-30T09:36:41.891Z,99663.72
2023-01-30T09:39:09.116Z,99661.59
2023-01-30T09:41:38.930Z,99658.47
2023-01-30T09:44:38.267Z,99645.56
2023-01-30T09:47:11.987Z,99641.22
2023-01-30T09:50:03.533Z,99634.41
2023-01-30T09:53:11.961Z,99639.03
2023-01-30T09:55:41.464Z,99635.28
2023-01-30T09:58:20.040Z,99629.84
2023-01-30T10:00:48.546Z,99623.78
2023-01-30T10:03:18.596Z,99623.63
2023-01-30T10:05:49.498Z,99620.19
2023-01-30T10:08:31.340Z,99615.50
2023-01-30T10:11:40.818Z,99609.28
2023-01-30T10:14:22.311Z,99607.66
2023-01-30T10:17:01.671Z,99595.16
2023-01-30T10:20:15.732Z,99599.06
2023-01-30T10:23:02.282Z,99587.41
2023-01-30T10:25:51.985Z,99588.13
2023-01-30T10:28:24.814Z,99569.44
2023-01-30T10:30:53.935Z,99565.31
2023-01-30T10:33:33.773Z,99558.69
2023-01-30T10:36:10.751Z,99549.44
2023-01-30T10:38:49.260Z,99543.63
2023-01-30T10:41:23.997Z,99542.75
2023-01-30T10:44:04.307Z,99528.81
2023-01-30T10:47:02.011Z,99525.81
2023-01-30T10:49:40.351Z,99520.81
2023-01-30T10:52:27.155Z,99519.22
2023-01-30T10:55:00.869Z,99498.31
2023-01-30T10:58:05.268Z,99492.44
2023-01-30T11:00:48.138Z,99497.44
2023-01-30T11:03:22.788Z,99478.56
2023-01-30T11:06:00.131Z,99474.63
2023-01-30T11:08:33.393Z,99472.72
2023-01-30T11:11:01.072Z,99466.56
2023-01-30T11:13:32.625Z,99455.22
2023-01-30T11:16:07.124Z,99446.78
2023-01-30T11:21:43.558Z,99454.28
2023-01-30T11:24:23.217Z,99454.84
2023-01-30T11:26:50.434Z,99446.78
2023-01-30T11:29:30.439Z,99436.84
2023-01-30T11:32:22.021Z,99427.00
2023-01-30T11:35:04.359Z,99424.47
2023-01-30T11:37:33.545Z,99431.59
2023-01-30T11:40:00.486Z,99421.97
2023-01-30T11:42:41.783Z,99405.59
2023-01-30T11:45:24.467Z,99408.47
2023-01-30T11:48:03.800Z,99410.59
2023-01-30T11:50:59.096Z,99403.75
2023-01-30T11:53:39.908Z,99401.06
2023-01-30T11:56:26.166Z,99392.97
2023-01-30T11:59:12.431Z,99399.53
2023-01-30T12:01:39.340Z,99401.06
2023-01-30T12:04:09.098Z,99381.06
2023-01-30T12:06:39.008Z,99386.47
2023-01-30T12:09:29.680Z,99383.84
2023-01-30T12:11:56.518Z,99384.56
2023-01-30T12:14:45.007Z,99380.97
2023-01-30T12:17:22.717Z,99365.66
2023-01-30T12:20:01.018Z,99344.41
2023-01-30T12:22:37.860Z,99324.63
2023-01-30T12:25:41.419Z,99319.81
2023-01-30T12:28:59.189Z,99317.53
2023-01-30T12:31:29.137Z,99309.91
2023-01-30T12:33:57.137Z,99311.81
2023-01-30T12:36:38.545Z,99308.81
2023-01-30T12:39:05.366Z,99314.16
2023-01-30T12:42:25.362Z,99314.94
2023-01-30T12:45:29.497Z,99325.38
2023-01-30T12:48:22.194Z,99315.63
2023-01-30T12:51:00.786Z,99309.41
2023-01-30T12:53:47.730Z,99320.28
2023-01-30T12:56:37.095Z,99311.44
2023-01-30T12:59:10.719Z,99291.47
2023-01-30T13:02:15.714Z,99293.91
2023-01-30T13:05:06.924Z,99279.75
2023-01-30T13:07:40.771Z,99276.75
2023-01-30T13:10:19.389Z,99265.19
2023-01-30T13:12:52.355Z,99257.75
2023-01-30T13:15:32.619Z,99256.88
2023-01-30T13:18:02.373Z,99253.88
2023-01-30T13:20:40.958Z,99255.69
2023-01-30T13:23:18.585Z,99254.75
2023-01-30T13:25:59.305Z,99257.19
2023-01-30T13:28:31.986Z,99260.09
2023-01-30T13:30:58.939Z,99264.06
2023-01-30T13:33:31.018Z,99255.13
2023-01-30T13:36:08.942Z,99264.94
2023-01-30T13:38:40.724Z,99262.81
2023-01-30T13:41:10.299Z,99258.56
2023-01-30T13:43:39.446Z,99261.28
2023-01-30T13:46:11.243Z,99263.69
2023-01-30T13:49:30.638Z,99256.47
2023-01-30T13:52:10.256Z,99246.72
2023-01-30T13:55:05.556Z,99247.59
2023-01-30T13:57:50.932Z,99240.09
2023-01-30T14:00:23.634Z,99234.19
2023-01-30T14:03:08.539Z,99231.91
2023-01-30T14:05:59.053Z,99239.97
2023-01-30T14:08:28.263Z,99237.78
2023-01-30T14:10:56.810Z,99239.69
2023-01-30T14:13:25.031Z,99239.75
2023-01-30T14:16:02.711Z,99252.59
2023-01-30T14:18:38.590Z,99252.53
2023-01-30T14:21:23.793Z,99247.00
2023-01-30T14:24:04.390Z,99257.31
2023-01-30T14:26:52.378Z,99256.44
2023-01-30T14:29:41.951Z,99256.59
